Time;durP1;ratioP1;P1;durP2;ratioP2;P2;SDS_P1;SDS_P2;PMS_P1;PMS_P2;Temp;Humidity;BMP_temperature;BMP_pressure;BME280_temperature;BME280_humidity;BME280_pressure;Samples;Min_cycle;Max_cycle;Signal;HPM_P1;HPM_P2
2022/12/02 00:02:03;;;;;;;42.60;17.75;;;4.40;99.90;;;;;;5037358;28;20189;-82
2022/12/02 00:04:29;;;;;;;31.73;16.27;;;4.30;99.90;;;;;;5035610;28;20180;-81
2022/12/02 00:06:57;;;;;;;34.60;15.33;;;4.50;99.90;;;;;;5039998;28;20197;-84
2022/12/02 00:09:31;;;;;;;35.70;16.88;;;4.50;99.90;;;;;;5037340;28;20265;-84
2022/12/02 00:11:59;;;;;;;32.15;15.80;;;4.40;99.90;;;;;;5020144;28;20854;-84
2022/12/02 00:14:28;;;;;;;30.55;14.98;;;4.40;99.90;;;;;;5033633;28;20946;-84
2022/12/02 00:16:54;;;;;;;39.83;15.95;;;4.50;99.90;;;;;;5029522;28;20197;-82
2022/12/02 00:19:20;;;;;;;39.03;18.15;;;4.50;99.90;;;;;;5033238;28;20978;-82
2022/12/02 00:21:47;;;;;;;31.90;16.55;;;4.40;99.90;;;;;;5015166;28;20178;-81
2022/12/02 00:24:13;;;;;;;38.58;14.45;;;4.40;99.90;;;;;;5016825;28;20178;-84
2022/12/02 00:26:38;;;;;;;32.40;15.67;;;4.40;99.90;;;;;;5015936;28;20205;-83
2022/12/02 00:29:04;;;;;;;32.97;16.07;;;;;;;;;;5015433;28;20467;-83
2022/12/02 00:31:30;;;;;;;37.60;18.20;;;4.30;99.90;;;;;;5025174;28;20202;-83
2022/12/02 00:33:56;;;;;;;37.33;16.13;;;4.20;99.90;;;;;;5016178;28;20436;-85
2022/12/02 00:36:22;;;;;;;30.00;15.10;;;4.20;99.90;;;;;;5034917;28;20206;-83
2022/12/02 00:38:48;;;;;;;35.00;17.13;;;;;;;;;;5029508;28;20287;-80
2022/12/02 00:41:14;;;;;;;34.80;17.07;;;4.10;99.90;;;;;;5029222;28;20456;-84
2022/12/02 00:46:33;;;;;;;39.60;16.88;;;4.10;99.90;;;;;;5026684;28;20256;-83
2022/12/02 00:51:36;;;;;;;40.50;17.92;;;4.30;99.90;;;;;;2549579;22;20244;-90
2022/12/02 00:54:02;;;;;;;36.53;14.70;;;4.40;99.90;;;;;;5034994;28;20180;-89
2022/12/02 00:56:28;;;;;;;31.17;16.27;;;4.50;99.90;;;;;;5037011;28;20174;-90
2022/12/02 00:58:54;;;;;;;37.80;14.97;;;;;;;;;;5041253;28;20224;-90
2022/12/02 01:01:20;;;;;;;34.23;15.60;;;;;;;;;;5038259;28;20462;-90
2022/12/02 01:03:46;;;;;;;34.67;16.50;;;4.50;99.90;;;;;;5039280;28;20442;-90
2022/12/02 01:06:12;;;;;;;34.47;16.37;;;;;;;;;;5040356;28;20181;-89
2022/12/02 01:08:38;;;;;;;36.08;16.05;;;4.80;99.90;;;;;;5034066;28;20336;-89
2022/12/02 01:11:04;;;;;;;33.60;17.27;;;;;;;;;;5040064;28;20261;-88
2022/12/02 01:13:30;;;;;;;33.40;16.27;;;;;;;;;;5032919;28;20186;-90
2022/12/02 01:15:56;;;;;;;29.70;15.73;;;;;;;;;;5039940;28;20442;-89
2022/12/02 01:18:22;;;;;;;31.97;14.80;;;;;;;;;;5040555;28;20177;-89
2022/12/02 01:20:48;;;;;;;33.95;15.52;;;4.70;99.90;;;;;;5036583;28;20464;-89
2022/12/02 01:23:14;;;;;;;30.42;16.40;;;;;;;;;;5034948;28;20604;-89
2022/12/02 01:25:40;;;;;;;37.30;15.37;;;;;;;;;;5046841;28;20192;-89
2022/12/02 01:28:06;;;;;;;33.37;16.20;;;;;;;;;;5047483;28;20459;-90
2022/12/02 01:30:32;;;;;;;28.85;15.00;;;4.60;99.90;;;;;;5030239;28;20545;-89
2022/12/02 01:32:58;;;;;;;35.10;16.47;;;;;;;;;;5033236;28;20189;-90
2022/12/02 01:35:24;;;;;;;29.17;13.23;;;;;;;;;;5042239;28;20189;-90
2022/12/02 01:37:50;;;;;;;35.43;17.97;;;;;;;;;;5041661;28;20185;-90
2022/12/02 01:40:17;;;;;;;38.63;16.10;;;4.80;99.90;;;;;;5038635;28;20474;-91
2022/12/02 01:42:43;;;;;;;34.40;16.65;;;;;;;;;;5046596;28;21074;-89
2022/12/02 01:45:09;;;;;;;33.95;16.67;;;4.80;99.90;;;;;;5046182;28;20188;-90
2022/12/02 01:47:36;;;;;;;37.72;14.85;;;4.90;99.90;;;;;;5036995;28;20203;-90
2022/12/02 01:50:02;;;;;;;29.70;15.40;;;4.80;99.90;;;;;;5046443;28;20641;-89
2022/12/02 01:52:28;;;;;;;37.63;17.30;;;4.80;99.90;;;;;;5032534;28;20254;-91
2022/12/02 01:54:54;;;;;;;32.63;16.23;;;;;;;;;;5040646;28;20361;-90
2022/12/02 01:57:25;;;;;;;31.93;13.60;;;4.70;99.90;;;;;;5034696;28;20198;-90
2022/12/02 01:59:51;;;;;;;30.73;14.38;;;;;;;;;;5037500;28;20460;-91
2022/12/02 02:02:28;;;;;;;31.55;14.68;;;4.80;99.90;;;;;;5046921;28;20219;-90
2022/12/02 02:04:56;;;;;;;37.30;16.95;;;4.40;99.90;;;;;;5038522;28;20178;-90
2022/12/02 02:07:22;;;;;;;34.88;15.20;;;;;;;;;;5033293;28;20195;-89
2022/12/02 02:09:48;;;;;;;29.10;13.90;;;;;;;;;;5034479;28;20193;-89
2022/12/02 02:12:13;;;;;;;33.47;14.93;;;;;;;;;;5048272;28;20570;-89
2022/12/02 02:46:10;;;;;;;30.50;13.65;;;;;;;;;;6218006;23;20239;-89
2022/12/02 02:48:37;;;;;;;32.60;15.10;;;5.00;99.90;;;;;;6215775;23;20153;-91
2022/12/02 02:51:03;;;;;;;37.50;15.98;;;;;;;;;;6219784;23;20996;-90
2022/12/02 02:53:29;;;;;;;31.15;16.05;;;4.90;99.90;;;;;;6218641;23;20152;-91
2022/12/02 02:55:55;;;;;;;34.78;14.50;;;4.80;99.90;;;;;;6217241;23;20153;-90
2022/12/02 02:58:23;;;;;;;34.50;14.50;;;4.60;99.90;;;;;;6216988;23;20167;-91
2022/12/02 03:01:13;;;;;;;37.15;16.17;;;4.60;99.90;;;;;;6217856;23;20200;-91
2022/12/02 03:03:51;;;;;;;28.55;13.57;;;4.70;99.90;;;;;;6219364;23;20163;-90
2022/12/02 03:06:17;;;;;;;31.30;14.50;;;;;;;;;;6219262;23;20141;-92
2022/12/02 03:08:45;;;;;;;28.98;14.57;;;4.70;99.90;;;;;;6219997;23;20149;-91
2022/12/02 03:11:12;;;;;;;35.88;15.52;;;;;;;;;;6218453;23;20299;-92
2022/12/02 03:13:40;;;;;;;32.38;17.08;;;4.80;99.90;;;;;;6221312;23;20156;-92
2022/12/02 03:16:09;;;;;;;32.10;15.45;;;4.70;99.90;;;;;;6218579;23;20180;-91
2022/12/02 03:18:36;;;;;;;27.67;13.38;;;4.80;99.90;;;;;;6218453;23;20156;-90
2022/12/02 03:21:02;;;;;;;29.08;14.32;;;4.80;99.90;;;;;;6235899;23;20165;-89
2022/12/02 03:23:30;;;;;;;33.10;17.02;;;4.70;99.90;;;;;;6223063;23;20156;-90
2022/12/02 03:25:56;;;;;;;29.17;14.60;;;;;;;;;;6218301;23;20172;-91
2022/12/02 03:28:22;;;;;;;31.30;13.75;;;4.60;99.90;;;;;;6220805;23;20177;-91
2022/12/02 03:30:48;;;;;;;27.47;13.60;;;;;;;;;;6216168;23;20180;-90
2022/12/02 03:33:14;;;;;;;33.33;15.02;;;;;;;;;;6215271;23;20402;-90
2022/12/02 03:35:40;;;;;;;28.92;14.90;;;4.60;99.90;;;;;;6217147;23;20149;-92
2022/12/02 03:38:06;;;;;;;33.27;14.87;;;;;;;;;;6217951;23;20137;-90
2022/12/02 03:40:32;;;;;;;31.50;15.33;;;;;;;;;;6215563;23;20164;-91
2022/12/02 03:42:58;;;;;;;31.70;15.35;;;4.40;99.90;;;;;;6211756;23;20376;-91
2022/12/02 03:45:24;;;;;;;28.73;13.18;;;4.40;99.90;;;;;;6208293;23;20910;-90
2022/12/02 03:47:50;;;;;;;30.00;14.17;;;4.40;99.90;;;;;;6207460;23;20157;-89
2022/12/02 03:50:16;;;;;;;32.30;14.63;;;4.40;99.90;;;;;;6207267;23;20385;-91
2022/12/02 03:52:41;;;;;;;27.05;13.23;;;4.30;99.90;;;;;;6202281;23;20428;-91
2022/12/02 03:55:08;;;;;;;38.60;16.90;;;4.40;99.90;;;;;;6205340;23;20884;-89
2022/12/02 03:57:34;;;;;;;36.78;13.70;;;4.40;99.90;;;;;;6207058;23;20153;-91
2022/12/02 04:00:00;;;;;;;29.42;13.15;;;4.80;99.90;;;;;;6207780;23;20530;-90
2022/12/02 04:02:26;;;;;;;32.00;15.40;;;;;;;;;;6207879;23;20176;-90
2022/12/02 04:04:52;;;;;;;29.67;15.27;;;4.40;99.90;;;;;;6203332;23;20378;-91
2022/12/02 04:07:18;;;;;;;33.00;16.00;;;;;;;;;;6206403;23;20189;-89
2022/12/02 04:09:43;;;;;;;27.60;13.32;;;4.30;99.90;;;;;;6203301;23;20172;-88
2022/12/02 04:12:09;;;;;;;29.47;14.00;;;4.30;99.90;;;;;;6201881;23;20197;-89
2022/12/02 04:14:35;;;;;;;31.70;15.10;;;;;;;;;;6209105;23;20138;-89
2022/12/02 04:17:01;;;;;;;40.40;15.97;;;;;;;;;;6205568;23;20859;-90
2022/12/02 04:19:27;;;;;;;31.47;14.50;;;4.30;99.90;;;;;;6205398;23;20381;-89
2022/12/02 04:21:52;;;;;;;38.17;16.57;;;4.30;99.90;;;;;;6205583;23;20408;-89
2022/12/02 04:24:18;;;;;;;29.70;15.40;;;;;;;;;;6215181;23;20376;-90
2022/12/02 04:26:44;;;;;;;31.10;15.13;;;;;;;;;;6207981;23;20164;-89
2022/12/02 04:29:10;;;;;;;36.72;15.60;;;;;;;;;;6205056;23;20434;-90
2022/12/02 04:31:36;;;;;;;38.00;16.30;;;4.20;99.90;;;;;;6207388;23;20181;-90
2022/12/02 04:34:01;;;;;;;40.17;15.90;;;4.20;99.90;;;;;;6207267;23;20403;-90
2022/12/02 04:36:27;;;;;;;33.70;14.10;;;;;;;;;;6211634;23;20153;-88
2022/12/02 04:38:53;;;;;;;29.50;14.70;;;;;;;;;;6200735;23;20156;-89
2022/12/02 04:41:19;;;;;;;34.93;15.97;;;;;;;;;;6207736;23;20466;-91
2022/12/02 04:43:45;;;;;;;32.10;13.63;;;;;;;;;;6203525;23;20459;-90
2022/12/02 04:46:10;;;;;;;31.10;14.90;;;4.30;99.90;;;;;;6205805;23;20851;-89
2022/12/02 04:48:36;;;;;;;32.73;17.20;;;4.30;99.90;;;;;;6202923;23;20499;-90
2022/12/02 04:51:01;;;;;;;37.07;18.60;;;4.40;99.90;;;;;;6204450;23;20205;-90
2022/12/02 04:53:27;;;;;;;26.70;15.73;;;;;;;;;;6203424;23;20180;-89
2022/12/02 04:55:53;;;;;;;33.22;14.93;;;;;;;;;;6203640;23;20207;-90
2022/12/02 04:58:19;;;;;;;38.37;16.10;;;4.30;99.90;;;;;;6204178;23;20905;-91
2022/12/02 05:00:44;;;;;;;32.80;16.67;;;4.40;99.90;;;;;;6204158;23;20879;-89
2022/12/02 05:03:10;;;;;;;30.37;14.47;;;;;;;;;;6203784;23;20152;-89
2022/12/02 05:05:36;;;;;;;32.33;15.30;;;;;;;;;;6204279;23;20150;-89
2022/12/02 05:08:02;;;;;;;35.50;15.80;;;4.40;99.90;;;;;;6204990;23;20384;-89
2022/12/02 05:10:28;;;;;;;34.43;16.00;;;;;;;;;;6206154;23;20404;-90
2022/12/02 05:12:54;;;;;;;38.87;14.80;;;;;;;;;;6205837;23;20897;-91
2022/12/02 05:15:20;;;;;;;36.60;17.00;;;;;;;;;;6206363;23;20364;-89
2022/12/02 05:17:46;;;;;;;30.50;14.83;;;;;;;;;;6202632;23;20373;-89
2022/12/02 05:20:12;;;;;;;34.15;15.32;;;4.50;99.90;;;;;;6207085;23;20447;-90
2022/12/02 05:22:38;;;;;;;30.50;14.70;;;4.50;99.90;;;;;;6207536;23;20157;-90
2022/12/02 05:25:05;;;;;;;32.33;16.20;;;4.50;99.90;;;;;;6207092;23;20236;-90
2022/12/02 05:27:30;;;;;;;34.40;17.00;;;4.40;99.90;;;;;;6207003;23;20167;-89
2022/12/02 05:29:56;;;;;;;33.10;16.97;;;;;;;;;;6209213;23;20138;-89
2022/12/02 05:32:22;;;;;;;37.03;15.83;;;;;;;;;;6205777;23;20509;-89
2022/12/02 05:39:54;;;;;;;35.67;16.67;;;;;;;;;;6215092;23;20224;-86
2022/12/02 05:42:20;;;;;;;33.63;14.80;;;;;;;;;;6211559;23;20604;-86
2022/12/02 05:44:45;;;;;;;39.35;17.40;;;4.60;99.90;;;;;;6215240;23;20173;-86
2022/12/02 05:47:13;;;;;;;33.17;15.40;;;4.50;99.90;;;;;;6212197;23;20164;-87
2022/12/02 05:49:41;;;;;;;37.10;16.38;;;4.50;99.90;;;;;;6213510;23;20153;-86
2022/12/02 05:52:33;;;;;;;37.83;16.05;;;4.30;99.90;;;;;;6214365;23;20183;-86
2022/12/02 05:55:05;;;;;;;32.97;14.77;;;4.30;99.90;;;;;;6210810;23;20688;-86
2022/12/02 05:57:31;;;;;;;36.78;18.40;;;4.40;99.90;;;;;;6212963;23;20154;-87
2022/12/02 06:00:10;;;;;;;36.57;16.50;;;4.40;99.90;;;;;;6211773;23;20471;-86
2022/12/02 06:02:39;;;;;;;36.10;16.13;;;4.50;99.90;;;;;;6235224;23;20396;-85
2022/12/02 06:05:23;;;;;;;34.10;16.10;;;4.60;99.90;;;;;;6218339;23;20177;-85
2022/12/02 06:07:57;;;;;;;41.47;20.88;;;4.60;99.90;;;;;;6208334;23;20164;-85
2022/12/02 06:10:27;;;;;;;32.58;16.25;;;4.70;99.90;;;;;;6205488;23;20231;-84
2022/12/02 06:12:58;;;;;;;35.72;16.67;;;4.70;99.90;;;;;;6204958;23;20176;-85
2022/12/02 06:15:28;;;;;;;42.80;17.60;;;4.70;99.90;;;;;;6230571;23;20181;-86
2022/12/02 06:17:53;;;;;;;33.97;16.13;;;4.60;99.90;;;;;;6222495;23;20166;-86
2022/12/02 06:20:31;;;;;;;38.17;16.10;;;4.60;99.90;;;;;;6208027;23;20503;-86
2022/12/02 06:23:00;;;;;;;44.22;15.68;;;4.50;99.90;;;;;;6208307;23;20240;-85
2022/12/02 06:25:29;;;;;;;29.52;15.73;;;4.50;99.90;;;;;;6209088;23;20737;-86
2022/12/02 06:28:23;;;;;;;37.40;17.35;;;4.40;99.90;;;;;;6208471;23;20185;-85
2022/12/02 06:30:50;;;;;;;44.42;17.60;;;4.50;99.90;;;;;;6210331;23;20157;-85
2022/12/02 06:33:42;;;;;;;35.53;14.85;;;4.30;99.90;;;;;;6210843;23;20157;-87
2022/12/02 06:36:33;;;;;;;34.92;15.73;;;4.20;99.90;;;;;;6203108;23;20219;-86
2022/12/02 06:39:19;;;;;;;45.17;17.42;;;4.10;99.90;;;;;;6196462;23;20169;-85
2022/12/02 06:41:44;;;;;;;35.60;15.70;;;4.20;99.90;;;;;;6210565;23;20176;-86
2022/12/02 06:47:32;;;;;;;38.70;16.30;;;6.90;99.90;;;;;;6211147;23;20164;-84
2022/12/02 06:50:03;;;;;;;36.85;16.02;;;4.10;99.90;;;;;;6208316;23;20165;-85
2022/12/02 06:52:33;;;;;;;34.92;16.50;;;4.10;99.90;;;;;;6208433;23;20192;-86
2022/12/02 06:54:59;;;;;;;39.17;17.00;;;4.10;99.90;;;;;;6210124;23;20789;-86
2022/12/02 06:57:26;;;;;;;41.13;16.52;;;3.90;99.90;;;;;;6210916;23;20183;-85
2022/12/02 06:59:51;;;;;;;37.33;16.27;;;3.90;99.90;;;;;;6232922;23;20161;-85
2022/12/02 07:02:31;;;;;;;44.93;18.90;;;4.30;99.90;;;;;;6212584;23;20192;-85
2022/12/02 07:04:58;;;;;;;34.55;16.75;;;3.90;99.90;;;;;;6211683;23;20698;-87
2022/12/02 07:07:29;;;;;;;35.78;16.77;;;3.90;99.90;;;;;;6211464;23;20149;-85
2022/12/02 07:10:05;;;;;;;39.15;16.75;;;3.90;99.90;;;;;;6208762;23;20157;-87
2022/12/02 07:12:37;;;;;;;37.08;16.83;;;3.90;99.90;;;;;;6209237;23;20173;-87
2022/12/02 07:15:28;;;;;;;50.95;17.48;;;3.90;99.90;;;;;;6208742;23;20247;-86
2022/12/02 07:18:00;;;;;;;45.67;18.73;;;4.00;99.90;;;;;;6209159;23;20130;-87
2022/12/02 07:20:35;;;;;;;36.08;17.50;;;3.90;99.90;;;;;;6206147;23;20295;-85
2022/12/02 07:23:20;;;;;;;40.92;17.25;;;3.80;99.90;;;;;;6211763;23;20141;-85
2022/12/02 07:25:50;;;;;;;41.33;17.30;;;3.80;99.90;;;;;;6238334;23;20474;-86
2022/12/02 07:28:27;;;;;;;43.55;18.50;;;3.80;99.90;;;;;;6222471;23;20172;-86
2022/12/02 07:31:02;;;;;;;39.50;17.77;;;3.80;99.90;;;;;;6212336;23;20224;-86
2022/12/02 07:33:29;;;;;;;52.60;21.73;;;3.80;99.90;;;;;;6211537;23;20133;-85
2022/12/02 07:35:55;;;;;;;51.38;20.02;;;3.70;99.90;;;;;;6207781;23;20173;-86
2022/12/02 07:38:20;;;;;;;52.73;18.80;;;3.70;99.90;;;;;;6195763;23;20527;-85
2022/12/02 07:40:46;;;;;;;48.53;17.83;;;3.80;99.90;;;;;;6150824;23;20385;-86
2022/12/02 07:43:14;;;;;;;46.60;19.67;;;4.00;99.90;;;;;;6143864;23;20164;-85
2022/12/02 07:45:43;;;;;;;50.42;19.35;;;7.80;99.90;;;;;;6197262;23;20164;-86
2022/12/02 07:48:09;;;;;;;49.80;21.17;;;4.40;99.90;;;;;;6169067;23;20161;-86
2022/12/02 07:50:35;;;;;;;38.17;18.17;;;5.90;99.90;;;;;;6158228;23;20788;-86
2022/12/02 07:53:01;;;;;;;42.17;19.57;;;;;;;;;;6180243;23;20180;-86
2022/12/02 07:55:27;;;;;;;60.70;20.38;;;4.00;99.90;;;;;;6178965;23;20212;-86
2022/12/02 07:57:53;;;;;;;40.77;17.20;;;4.10;99.90;;;;;;6181420;23;20213;-86
2022/12/02 08:00:19;;;;;;;38.43;15.37;;;4.00;99.90;;;;;;6153604;23;20170;-87
2022/12/02 08:02:44;;;;;;;35.45;16.40;;;4.00;99.90;;;;;;6179436;23;20455;-86
2022/12/02 08:05:11;;;;;;;42.13;17.93;;;4.00;99.90;;;;;;6182627;23;20206;-86
2022/12/02 08:07:37;;;;;;;36.60;17.13;;;4.10;99.90;;;;;;6160386;23;20891;-85
2022/12/02 08:10:03;;;;;;;36.80;16.13;;;4.20;99.90;;;;;;6171990;23;20212;-85
2022/12/02 08:12:29;;;;;;;41.47;17.20;;;4.30;99.90;;;;;;6167346;23;20189;-85
2022/12/02 08:14:54;;;;;;;38.20;16.70;;;4.20;99.90;;;;;;6163688;23;20178;-86
2022/12/02 08:17:20;;;;;;;39.03;15.90;;;4.20;99.90;;;;;;6159606;23;20192;-86
2022/12/02 08:19:45;;;;;;;40.37;16.80;;;4.20;99.90;;;;;;6156087;23;20512;-87
2022/12/02 08:22:11;;;;;;;36.00;13.70;;;4.20;99.90;;;;;;6179173;23;20153;-86
2022/12/02 08:24:36;;;;;;;34.80;15.57;;;4.20;99.90;;;;;;6157399;23;20187;-86
2022/12/02 08:27:02;;;;;;;37.23;14.00;;;;;;;;;;6156344;23;20233;-85
2022/12/02 08:29:29;;;;;;;30.13;14.80;;;4.10;99.90;;;;;;6182012;23;20161;-86
2022/12/02 08:31:55;;;;;;;27.20;14.20;;;4.20;99.90;;;;;;6153130;23;20425;-86
2022/12/02 08:34:20;;;;;;;35.20;13.80;;;4.20;99.90;;;;;;6150751;23;20169;-85
2022/12/02 08:36:46;;;;;;;27.53;13.53;;;;;;;;;;6181726;23;20205;-87
2022/12/02 08:39:12;;;;;;;30.37;13.40;;;;;;;;;;6180733;23;20195;-86
2022/12/02 08:41:38;;;;;;;32.70;13.57;;;4.10;99.90;;;;;;6151716;23;20435;-86
2022/12/02 08:44:05;;;;;;;26.48;13.80;;;4.10;99.90;;;;;;6149896;23;20727;-86
2022/12/02 08:46:37;;;;;;;25.58;11.82;;;4.00;99.90;;;;;;6169535;23;20150;-85
2022/12/02 08:49:05;;;;;;;31.17;13.10;;;4.20;99.90;;;;;;6166378;23;20169;-86
2022/12/02 08:51:31;;;;;;;29.13;12.65;;;4.00;99.90;;;;;;6153288;23;21001;-85
2022/12/02 08:53:56;;;;;;;29.25;14.80;;;4.00;99.90;;;;;;6150879;23;20177;-86
2022/12/02 08:56:22;;;;;;;33.37;14.60;;;3.90;99.90;;;;;;6150939;23;20209;-86
2022/12/02 08:58:48;;;;;;;26.53;13.07;;;3.90;99.90;;;;;;6151839;23;21156;-86
2022/12/02 09:01:13;;;;;;;38.33;15.57;;;3.80;99.90;;;;;;6179125;23;20610;-85
2022/12/02 09:03:38;;;;;;;32.43;15.27;;;3.80;99.90;;;;;;6150845;23;20899;-86
2022/12/02 09:06:04;;;;;;;34.07;15.90;;;3.70;99.90;;;;;;6175621;23;20162;-86
2022/12/02 09:08:30;;;;;;;36.90;15.07;;;3.80;99.90;;;;;;6149432;23;20240;-85
2022/12/02 09:10:55;;;;;;;34.83;14.03;;;3.70;99.90;;;;;;6177484;23;20160;-85
2022/12/02 09:13:21;;;;;;;42.77;17.07;;;3.70;99.90;;;;;;6173586;23;20139;-85
2022/12/02 09:15:46;;;;;;;31.20;14.87;;;3.70;99.90;;;;;;6167902;23;20200;-86
2022/12/02 09:18:12;;;;;;;37.80;14.13;;;3.70;99.90;;;;;;6173277;23;20209;-86
2022/12/02 09:20:37;;;;;;;36.97;15.70;;;3.70;99.90;;;;;;6181018;23;20169;-86
2022/12/02 09:23:03;;;;;;;30.93;15.27;;;3.70;99.90;;;;;;6153393;23;20478;-86
2022/12/02 09:25:29;;;;;;;42.50;16.13;;;3.60;99.90;;;;;;6153192;23;20252;-86
2022/12/02 09:27:54;;;;;;;35.40;15.10;;;3.70;99.90;;;;;;6152438;23;20181;-86
2022/12/02 09:30:20;;;;;;;35.17;15.50;;;3.90;99.90;;;;;;6176719;23;20177;-85
2022/12/02 09:32:45;;;;;;;32.00;14.67;;;4.00;99.90;;;;;;6176273;23;20185;-87
2022/12/02 09:35:11;;;;;;;30.00;14.03;;;4.10;99.90;;;;;;6176035;23;20172;-86
2022/12/02 09:37:36;;;;;;;31.90;15.40;;;4.10;99.90;;;;;;6147096;23;20186;-86
2022/12/02 09:40:06;;;;;;;37.80;15.73;;;4.10;99.90;;;;;;6149783;23;20161;-86
2022/12/02 09:42:31;;;;;;;34.28;14.40;;;4.10;99.90;;;;;;6149905;23;20154;-85
2022/12/02 09:44:58;;;;;;;34.30;13.67;;;3.90;99.90;;;;;;6149199;23;20301;-86
2022/12/02 09:47:25;;;;;;;35.75;13.40;;;3.90;99.90;;;;;;6147364;23;20158;-87
2022/12/02 09:49:51;;;;;;;30.10;13.07;;;3.90;99.90;;;;;;6148674;23;20162;-86
2022/12/02 09:52:23;;;;;;;29.30;14.10;;;3.80;99.90;;;;;;6174930;23;20807;-86
2022/12/02 09:54:50;;;;;;;28.30;12.35;;;4.00;99.90;;;;;;6147268;23;20428;-86
2022/12/02 09:57:17;;;;;;;22.48;10.40;;;4.00;99.90;;;;;;6148976;23;20161;-86
2022/12/02 09:59:46;;;;;;;28.27;12.40;;;4.40;99.90;;;;;;6149671;23;20160;-86
2022/12/02 10:02:43;;;;;;;28.77;12.52;;;4.00;99.90;;;;;;6177003;23;20224;-85
2022/12/02 10:05:23;;;;;;;21.50;11.82;;;4.10;99.90;;;;;;6148044;23;20177;-86
2022/12/02 10:07:51;;;;;;;19.58;10.13;;;4.00;99.90;;;;;;6182246;23;20202;-85
2022/12/02 10:10:41;;;;;;;16.95;10.82;;;4.00;99.90;;;;;;6177022;23;20173;-86
2022/12/02 10:13:15;;;;;;;19.92;9.98;;;4.00;99.90;;;;;;6152174;23;20466;-86
2022/12/02 10:15:41;;;;;;;24.25;12.13;;;3.90;99.90;;;;;;6152735;23;20201;-86
2022/12/02 10:18:18;;;;;;;27.85;11.82;;;3.80;99.90;;;;;;6150853;23;20158;-86
2022/12/02 10:20:43;;;;;;;21.65;11.48;;;3.80;99.90;;;;;;6177001;23;20140;-87
2022/12/02 10:23:09;;;;;;;20.73;10.17;;;3.80;99.90;;;;;;6152071;23;20826;-86
2022/12/02 10:25:36;;;;;;;23.73;12.20;;;3.90;99.90;;;;;;6146635;23;20188;-86
2022/12/02 10:28:02;;;;;;;22.45;10.65;;;6.30;99.90;;;;;;6151239;23;20172;-86
2022/12/02 10:30:29;;;;;;;20.83;11.70;;;3.60;99.90;;;;;;6151116;23;20153;-86
2022/12/02 10:33:05;;;;;;;24.60;11.20;;;3.70;99.90;;;;;;6177899;23;20185;-86
2022/12/02 10:35:44;;;;;;;25.50;11.15;;;3.80;99.90;;;;;;6150628;23;20178;-86
2022/12/02 10:38:42;;;;;;;23.67;10.75;;;3.80;99.90;;;;;;6162684;23;20240;-86
2022/12/02 10:41:14;;;;;;;28.80;13.13;;;3.80;99.90;;;;;;6206025;23;20163;-86
2022/12/02 10:43:42;;;;;;;29.55;12.50;;;3.70;99.90;;;;;;6207286;23;20149;-87
2022/12/02 10:46:12;;;;;;;27.52;12.88;;;3.80;99.90;;;;;;6223146;23;20169;-86
2022/12/02 10:48:38;;;;;;;36.33;12.52;;;3.60;99.90;;;;;;6227044;23;20252;-86
2022/12/02 10:51:04;;;;;;;34.23;15.33;;;;;;;;;;6209487;23;20189;-87
2022/12/02 10:53:31;;;;;;;30.20;13.05;;;3.60;99.90;;;;;;6208308;23;20400;-86
2022/12/02 10:55:57;;;;;;;31.33;15.23;;;6.70;99.90;;;;;;6210442;23;20169;-86
2022/12/02 10:58:30;;;;;;;30.10;11.63;;;3.50;99.90;;;;;;6214865;23;20160;-87
2022/12/02 11:00:57;;;;;;;28.15;13.00;;;3.60;99.90;;;;;;6211382;23;20384;-86
2022/12/02 11:03:23;;;;;;;27.02;12.50;;;3.60;99.90;;;;;;6208102;23;20181;-86
2022/12/02 11:05:50;;;;;;;30.05;11.52;;;3.60;99.90;;;;;;6207896;23;20196;-86
2022/12/02 11:08:19;;;;;;;25.60;12.77;;;3.50;99.90;;;;;;6212474;23;20161;-86
2022/12/02 11:10:47;;;;;;;25.83;12.80;;;3.60;99.90;;;;;;6207424;23;20231;-86
2022/12/02 11:13:13;;;;;;;19.20;11.75;;;3.70;99.90;;;;;;6205574;23;20803;-86
2022/12/02 11:15:50;;;;;;;21.20;10.20;;;3.70;99.90;;;;;;6205496;23;20193;-86
2022/12/02 11:18:22;;;;;;;24.85;11.60;;;3.60;99.90;;;;;;6206849;23;20228;-85
2022/12/02 11:20:51;;;;;;;22.27;11.68;;;3.70;99.90;;;;;;6206603;23;20172;-87
2022/12/02 11:23:21;;;;;;;26.23;10.90;;;3.60;99.90;;;;;;6206099;23;20217;-86
2022/12/02 11:25:48;;;;;;;22.35;11.10;;;3.70;99.90;;;;;;6207214;23;20293;-86
2022/12/02 11:28:31;;;;;;;19.25;10.82;;;3.70;99.90;;;;;;6211857;23;20651;-86
2022/12/02 11:31:09;;;;;;;25.42;12.50;;;3.70;99.90;;;;;;6223143;23;20159;-86
2022/12/02 11:33:47;;;;;;;18.10;11.10;;;3.70;99.90;;;;;;6228959;23;20149;-85
2022/12/02 11:36:20;;;;;;;24.50;12.00;;;3.70;99.90;;;;;;6206461;23;20177;-85
2022/12/02 11:38:52;;;;;;;22.60;10.65;;;3.80;99.90;;;;;;6196200;23;20418;-86
2022/12/02 11:41:20;;;;;;;20.70;11.02;;;3.80;99.90;;;;;;6188523;23;20197;-91
2022/12/02 11:43:45;;;;;;;22.25;10.00;;;3.80;99.90;;;;;;6201246;23;20651;-88
2022/12/02 11:46:16;;;;;;;19.80;10.90;;;3.70;99.90;;;;;;6203431;23;20225;-86
2022/12/02 11:48:55;;;;;;;17.45;9.40;;;3.60;99.90;;;;;;6201980;23;20228;-87
2022/12/02 11:51:38;;;;;;;21.90;9.27;;;3.60;99.90;;;;;;6228010;23;20179;-87
2022/12/02 11:54:10;;;;;;;17.42;10.13;;;3.70;99.90;;;;;;6238824;22;20149;-86
2022/12/02 11:56:37;;;;;;;23.40;11.50;;;3.70;99.90;;;;;;6238332;22;20228;-90
2022/12/02 11:59:18;;;;;;;16.30;9.68;;;3.80;99.90;;;;;;6238030;22;20311;-85
2022/12/02 12:01:44;;;;;;;17.42;11.05;;;3.80;99.90;;;;;;6236648;23;20187;-88
2022/12/02 12:04:26;;;;;;;20.37;10.57;;;3.70;99.90;;;;;;6233470;23;20156;-86
2022/12/02 12:06:54;;;;;;;16.25;8.75;;;3.60;99.90;;;;;;6236694;22;20137;-87
2022/12/02 12:09:20;;;;;;;14.30;8.48;;;;;;;;;;6235718;23;20163;-85
2022/12/02 12:12:12;;;;;;;18.73;9.45;;;3.30;99.90;;;;;;6237292;23;20262;-88
2022/12/02 12:14:58;;;;;;;19.98;9.65;;;3.30;99.90;;;;;;6235304;22;20144;-88
2022/12/02 12:17:39;;;;;;;19.67;9.95;;;3.40;99.90;;;;;;6232767;23;20148;-88
2022/12/02 12:20:25;;;;;;;18.75;9.63;;;3.50;99.90;;;;;;6234716;23;20200;-88
2022/12/02 12:22:51;;;;;;;14.82;7.93;;;3.40;99.90;;;;;;6235107;23;20160;-88
2022/12/02 12:25:42;;;;;;;17.40;9.55;;;3.40;99.90;;;;;;6237081;22;20251;-88
2022/12/02 12:28:33;;;;;;;18.83;9.60;;;3.40;99.90;;;;;;6231450;23;20149;-89
2022/12/02 12:31:01;;;;;;;16.30;9.65;;;3.40;99.90;;;;;;6232277;23;20184;-88
2022/12/02 12:33:27;;;;;;;14.75;8.63;;;3.40;99.90;;;;;;6234094;23;20194;-87
2022/12/02 12:35:54;;;;;;;15.55;9.60;;;3.30;99.90;;;;;;6226943;23;20153;-87
2022/12/02 12:38:25;;;;;;;15.07;8.48;;;3.20;99.90;;;;;;6229600;23;20199;-89
2022/12/02 12:40:51;;;;;;;14.52;8.15;;;3.30;99.90;;;;;;6232738;22;20184;-89
2022/12/02 12:43:17;;;;;;;45.17;12.73;;;;;;;;;;6234563;23;20536;-88
2022/12/02 12:45:42;;;;;;;14.77;7.50;;;3.30;99.90;;;;;;6232465;23;20175;-86
2022/12/02 12:48:08;;;;;;;18.60;9.50;;;3.40;99.90;;;;;;6233967;23;20383;-87
2022/12/02 12:50:33;;;;;;;15.50;8.80;;;3.40;99.90;;;;;;6233473;23;20180;-89
2022/12/02 12:52:59;;;;;;;15.33;8.03;;;3.30;99.90;;;;;;6235370;23;20195;-89
2022/12/02 12:55:26;;;;;;;21.00;10.87;;;3.30;99.90;;;;;;6240242;23;20144;-87
2022/12/02 12:57:51;;;;;;;15.10;9.48;;;3.30;99.90;;;;;;6241528;23;20156;-86
2022/12/02 13:00:17;;;;;;;18.23;10.23;;;3.30;99.90;;;;;;6234247;23;20168;-87
2022/12/02 13:02:43;;;;;;;14.33;8.50;;;3.30;99.90;;;;;;6238735;22;20180;-87
2022/12/02 13:05:09;;;;;;;19.67;9.60;;;;;;;;;;6237313;23;20808;-88
2022/12/02 13:07:34;;;;;;;15.60;9.18;;;3.20;99.90;;;;;;6241891;23;20153;-86
2022/12/02 13:10:00;;;;;;;18.37;9.53;;;;;;;;;;6243373;23;20187;-87
2022/12/02 13:12:26;;;;;;;16.33;9.45;;;3.30;99.90;;;;;;6231227;23;20279;-88
2022/12/02 13:14:52;;;;;;;19.40;11.00;;;;;;;;;;6234933;23;20701;-85
2022/12/02 13:17:18;;;;;;;15.93;8.53;;;;;;;;;;6233789;23;20231;-88
2022/12/02 13:19:44;;;;;;;17.23;9.20;;;;;;;;;;6236242;23;20878;-88
2022/12/02 13:22:09;;;;;;;16.00;9.15;;;3.30;99.90;;;;;;6235017;23;20669;-88
2022/12/02 13:24:37;;;;;;;17.90;9.63;;;;;;;;;;6235861;23;20224;-86
2022/12/02 13:27:03;;;;;;;15.90;8.63;;;3.20;99.90;;;;;;6234715;23;20199;-86
2022/12/02 13:29:29;;;;;;;18.70;10.17;;;;;;;;;;6234538;23;20160;-87
2022/12/02 13:31:55;;;;;;;20.10;12.57;;;;;;;;;;6234440;23;20534;-87
2022/12/02 13:34:20;;;;;;;16.80;10.20;;;3.10;99.90;;;;;;6230636;23;20375;-88
2022/12/02 13:36:46;;;;;;;25.70;12.77;;;;;;;;;;6231615;23;20394;-88
2022/12/02 13:39:12;;;;;;;24.50;11.67;;;;;;;;;;6232055;23;20152;-89
2022/12/02 13:41:38;;;;;;;19.30;9.55;;;3.30;99.90;;;;;;6231342;23;20429;-89
2022/12/02 13:44:04;;;;;;;22.50;10.40;;;;;;;;;;6227136;23;20243;-89
2022/12/02 13:46:30;;;;;;;23.05;10.30;;;3.10;99.90;;;;;;6224452;23;20156;-87
2022/12/02 13:48:56;;;;;;;16.63;9.15;;;3.00;99.90;;;;;;6232855;22;20144;-89
2022/12/02 13:51:22;;;;;;;23.73;11.20;;;;;;;;;;6235824;23;20536;-89